createdAt,value
2018-11-03T00:00:59.816Z,20.50
2018-11-03T00:03:28.615Z,20.40
2018-11-03T00:05:57.356Z,20.60
2018-11-03T00:08:26.066Z,20.60
2018-11-03T00:10:54.749Z,20.60
2018-11-03T00:13:23.378Z,20.80
2018-11-03T00:15:51.800Z,20.90
2018-11-03T00:18:20.257Z,21.00
2018-11-03T00:20:48.747Z,21.20
2018-11-03T00:23:17.172Z,21.30
2018-11-03T00:25:45.610Z,21.30
2018-11-03T00:28:14.094Z,21.30
2018-11-03T00:30:42.535Z,21.40
2018-11-03T00:33:11.036Z,21.70
2018-11-03T00:35:39.464Z,22.20
2018-11-03T00:38:07.951Z,21.90
2018-11-03T00:40:36.399Z,21.30
2018-11-03T00:43:04.860Z,20.90
2018-11-03T00:45:33.286Z,20.70
2018-11-03T00:48:01.794Z,20.70
2018-11-03T00:50:30.274Z,20.70
2018-11-03T00:52:58.764Z,20.80
2018-11-03T00:55:27.219Z,21.00
2018-11-03T00:57:55.687Z,21.10
2018-11-03T01:00:24.146Z,21.30
2018-11-03T01:02:52.559Z,21.40
2018-11-03T01:05:20.993Z,21.50
2018-11-03T01:07:49.424Z,21.70
2018-11-03T01:10:18.107Z,21.70
2018-11-03T01:12:46.503Z,21.70
2018-11-03T01:15:16.161Z,21.80
2018-11-03T01:17:44.801Z,21.90
2018-11-03T01:20:17.358Z,22.40
2018-11-03T01:22:45.925Z,23.30
2018-11-03T01:25:14.410Z,23.60
2018-11-03T01:27:42.803Z,23.70
2018-11-03T01:30:12.838Z,23.70
2018-11-03T01:32:41.405Z,23.60
2018-11-03T01:35:10.300Z,23.40
2018-11-03T01:37:39.484Z,23.40
2018-11-03T01:40:08.261Z,23.10
2018-11-03T01:42:36.743Z,22.70
2018-11-03T01:45:05.781Z,22.60
2018-11-03T01:47:34.427Z,22.70
2018-11-03T01:50:02.927Z,22.90
2018-11-03T01:52:31.387Z,23.10
2018-11-03T01:54:59.897Z,23.10
2018-11-03T01:57:28.354Z,22.90
2018-11-03T01:59:56.789Z,22.70
2018-11-03T02:02:25.222Z,22.40
2018-11-03T02:04:53.753Z,22.20
2018-11-03T02:07:22.203Z,22.00
2018-11-03T02:09:50.654Z,21.80
2018-11-03T02:12:19.098Z,21.30
2018-11-03T02:14:47.599Z,21.00
2018-11-03T02:17:16.021Z,21.00
2018-11-03T02:19:47.537Z,20.70
2018-11-03T02:22:15.970Z,20.40
2018-11-03T02:24:44.550Z,20.10
2018-11-03T02:27:13.012Z,19.80
2018-11-03T02:29:41.464Z,19.60
2018-11-03T02:32:09.915Z,19.30
2018-11-03T02:34:38.346Z,19.10
2018-11-03T02:37:06.838Z,19.30
2018-11-03T02:39:35.251Z,19.50
2018-11-03T02:42:03.748Z,19.70
2018-11-03T02:44:32.199Z,19.80
2018-11-03T02:47:00.640Z,20.00
2018-11-03T02:49:29.122Z,20.00
2018-11-03T02:51:57.608Z,20.00
2018-11-03T02:54:26.062Z,20.10
2018-11-03T02:56:54.529Z,20.30
2018-11-03T02:59:22.939Z,20.90
2018-11-03T03:01:51.500Z,21.50
2018-11-03T03:04:19.920Z,21.70
2018-11-03T03:06:48.371Z,21.80
2018-11-03T03:09:16.793Z,21.90
2018-11-03T03:11:45.479Z,22.10
2018-11-03T03:14:14.062Z,22.20
2018-11-03T03:16:42.506Z,22.30
2018-11-03T03:19:10.952Z,22.60
2018-11-03T03:21:39.451Z,22.80
2018-11-03T03:24:07.914Z,22.80
2018-11-03T03:26:36.407Z,22.90
2018-11-03T03:29:04.995Z,23.00
2018-11-03T03:31:33.296Z,23.20
2018-11-03T03:34:01.922Z,23.50
2018-11-03T03:36:30.385Z,23.70
2018-11-03T03:38:58.877Z,23.70
2018-11-03T03:41:27.370Z,23.90
2018-11-03T03:43:55.777Z,24.20
2018-11-03T03:46:24.241Z,24.40
2018-11-03T03:48:52.697Z,24.80
2018-11-03T03:51:21.144Z,25.10
2018-11-03T03:53:49.670Z,25.10
2018-11-03T03:56:18.205Z,25.00
2018-11-03T03:58:46.627Z,24.90
2018-11-03T04:01:15.104Z,24.70
2018-11-03T04:03:43.525Z,23.70
2018-11-03T04:06:11.985Z,23.40
2018-11-03T04:08:40.525Z,22.70
2018-11-03T04:11:09.010Z,21.80
2018-11-03T04:13:37.445Z,21.20
2018-11-03T04:16:06.083Z,21.00
2018-11-03T04:18:34.547Z,20.90
2018-11-03T04:21:03.001Z,20.90
2018-11-03T04:23:31.441Z,20.60
2018-11-03T04:25:59.913Z,20.70
2018-11-03T04:28:28.397Z,20.80
2018-11-03T04:30:56.878Z,20.80
2018-11-03T04:33:25.706Z,20.80
2018-11-03T04:35:54.092Z,21.00
2018-11-03T04:38:22.604Z,21.10
2018-11-03T04:40:51.050Z,21.20
2018-11-03T04:43:19.478Z,21.20
2018-11-03T04:45:47.947Z,21.10
2018-11-03T04:48:16.367Z,20.90
2018-11-03T04:50:44.845Z,20.70
2018-11-03T04:53:13.308Z,20.60
2018-11-03T04:55:41.809Z,20.40
2018-11-03T04:58:10.261Z,20.70
2018-11-03T05:00:38.718Z,21.00
2018-11-03T05:03:07.186Z,21.10
2018-11-03T05:05:35.617Z,21.00
2018-11-03T05:08:04.037Z,21.00
2018-11-03T05:10:32.535Z,21.00
2018-11-03T05:13:00.989Z,20.90
2018-11-03T05:15:29.566Z,20.80
2018-11-03T05:17:57.993Z,20.90
2018-11-03T05:20:26.470Z,20.90
2018-11-03T05:22:54.927Z,20.90
2018-11-03T05:25:23.351Z,21.00
2018-11-03T05:27:51.832Z,21.30
2018-11-03T05:30:20.293Z,21.50
2018-11-03T05:32:48.761Z,21.70
2018-11-03T05:35:17.224Z,21.90
2018-11-03T05:37:45.675Z,22.10
2018-11-03T05:40:14.135Z,22.10
2018-11-03T05:42:42.580Z,22.20
2018-11-03T05:45:11.052Z,21.50
2018-11-03T05:47:39.571Z,21.10
2018-11-03T05:50:08.718Z,20.90
2018-11-03T05:52:37.272Z,20.90
2018-11-03T05:55:06.566Z,20.80
2018-11-03T05:57:35.010Z,20.70
2018-11-03T06:00:03.511Z,20.60
2018-11-03T06:02:31.899Z,20.40
2018-11-03T06:05:00.389Z,20.30
2018-11-03T06:07:28.803Z,20.60
2018-11-03T06:09:57.317Z,20.90
2018-11-03T06:12:25.708Z,21.20
2018-11-03T06:14:54.393Z,21.40
2018-11-03T06:17:22.840Z,21.50
2018-11-03T06:19:51.303Z,21.30
2018-11-03T06:22:19.807Z,21.10
2018-11-03T06:24:48.243Z,21.20
2018-11-03T06:27:16.720Z,21.40
2018-11-03T06:29:45.215Z,21.50
2018-11-03T06:32:13.679Z,21.70
2018-11-03T06:34:42.171Z,21.70
2018-11-03T06:37:10.650Z,21.70
2018-11-03T06:39:39.060Z,21.70
2018-11-03T06:42:07.750Z,21.60
2018-11-03T06:44:36.295Z,21.80
2018-11-03T06:47:04.759Z,21.90
2018-11-03T06:49:33.213Z,22.10
2018-11-03T06:52:01.757Z,22.20
2018-11-03T06:54:30.187Z,22.30
2018-11-03T06:56:58.633Z,22.40
2018-11-03T06:59:27.048Z,22.40
2018-11-03T07:01:55.498Z,22.40
2018-11-03T07:04:23.928Z,22.70
2018-11-03T07:06:52.468Z,23.10
2018-11-03T07:09:20.910Z,23.30
2018-11-03T07:11:49.403Z,23.40
2018-11-03T07:14:17.831Z,23.40
2018-11-03T07:16:46.324Z,23.50
2018-11-03T07:19:14.804Z,23.50
2018-11-03T07:21:43.265Z,23.60
2018-11-03T07:24:11.685Z,23.70
2018-11-03T07:26:40.197Z,23.80
2018-11-03T07:29:08.620Z,23.90
2018-11-03T07:31:37.074Z,23.80
2018-11-03T07:34:05.652Z,24.00
2018-11-03T07:36:34.141Z,24.10
2018-11-03T07:39:02.726Z,24.00
2018-11-03T07:41:31.274Z,23.90
2018-11-03T07:43:59.616Z,24.00
2018-11-03T07:46:28.098Z,24.20
2018-11-03T07:48:56.600Z,24.20
2018-11-03T07:51:24.961Z,24.30
2018-11-03T07:53:53.412Z,24.30
2018-11-03T07:56:21.891Z,24.30
2018-11-03T07:58:50.335Z,23.90
2018-11-03T08:01:18.832Z,22.90
2018-11-03T08:03:47.240Z,22.30
2018-11-03T08:06:15.734Z,22.10
2018-11-03T08:08:44.163Z,22.00
2018-11-03T08:11:12.584Z,22.00
2018-11-03T08:13:41.063Z,21.90
2018-11-03T08:16:09.497Z,21.90
2018-11-03T08:18:37.988Z,22.00
2018-11-03T08:21:06.401Z,22.10
2018-11-03T08:23:34.896Z,22.10
2018-11-03T08:26:03.335Z,22.10
2018-11-03T08:28:31.869Z,22.20
2018-11-03T08:31:00.290Z,23.30
2018-11-03T08:33:28.762Z,24.00
2018-11-03T08:35:57.238Z,24.30
2018-11-03T08:38:25.714Z,24.40
2018-11-03T08:40:54.146Z,24.50
2018-11-03T08:43:22.635Z,24.40
2018-11-03T08:45:51.036Z,24.50
2018-11-03T08:48:19.828Z,24.50
2018-11-03T08:50:48.202Z,24.50
2018-11-03T08:53:16.693Z,24.40
2018-11-03T08:55:45.206Z,24.30
2018-11-03T08:58:13.689Z,24.20
2018-11-03T09:00:42.093Z,24.20
2018-11-03T09:03:10.573Z,24.20
2018-11-03T09:05:39.098Z,24.20
2018-11-03T09:08:07.514Z,24.20
2018-11-03T09:10:35.930Z,24.10
2018-11-03T09:13:04.436Z,24.00
2018-11-03T09:15:32.883Z,23.40
2018-11-03T09:18:01.332Z,22.70
2018-11-03T09:20:29.771Z,22.30
2018-11-03T09:22:58.224Z,22.00
2018-11-03T09:25:26.678Z,21.90
2018-11-03T09:27:55.132Z,21.70
2018-11-03T09:30:23.550Z,21.70
2018-11-03T09:32:51.997Z,21.60
2018-11-03T09:35:20.479Z,21.50
2018-11-03T09:37:48.935Z,21.20
2018-11-03T09:40:18.111Z,20.60
2018-11-03T09:42:47.368Z,20.20
2018-11-03T09:45:15.799Z,19.80
2018-11-03T09:47:44.683Z,19.60
2018-11-03T09:50:14.152Z,19.50
2018-11-03T09:52:42.973Z,19.30
2018-11-03T09:55:13.576Z,19.10
2018-11-03T09:57:42.327Z,19.20
2018-11-03T10:00:12.792Z,19.40
2018-11-03T10:02:41.242Z,19.60
2018-11-03T10:05:10.970Z,19.90
2018-11-03T10:07:39.352Z,20.90
2018-11-03T10:10:09.144Z,21.70
2018-11-03T10:12:37.574Z,22.10
2018-11-03T10:15:06.263Z,22.40
2018-11-03T10:17:34.687Z,22.60
2018-11-03T10:20:03.248Z,22.80
2018-11-03T10:22:32.015Z,22.90
2018-11-03T10:25:00.354Z,22.90
2018-11-03T10:27:28.843Z,23.00
2018-11-03T10:29:57.391Z,22.80
2018-11-03T10:32:25.811Z,22.70
2018-11-03T10:34:54.382Z,22.50
2018-11-03T10:37:22.831Z,22.40
2018-11-03T10:39:51.340Z,22.20
2018-11-03T10:42:19.804Z,22.20
2018-11-03T10:44:48.202Z,22.10
2018-11-03T10:47:16.653Z,22.10
2018-11-03T10:49:45.151Z,22.00
2018-11-03T10:52:14.313Z,22.00
2018-11-03T10:54:42.801Z,22.00
2018-11-03T10:57:11.687Z,21.90
2018-11-03T10:59:40.207Z,21.80
2018-11-03T11:02:25.863Z,21.80
2018-11-03T11:05:12.062Z,20.60
2018-11-03T11:07:58.041Z,18.10
2018-11-03T11:10:43.892Z,17.60
2018-11-03T11:13:17.156Z,17.80
2018-11-03T11:15:45.714Z,17.90
2018-11-03T11:18:14.112Z,18.00
2018-11-03T11:20:42.525Z,18.00
2018-11-03T11:23:10.966Z,18.00
2018-11-03T11:25:39.610Z,18.00
2018-11-03T11:28:08.314Z,18.00
2018-11-03T11:30:41.402Z,17.90
2018-11-03T11:33:11.306Z,17.90
2018-11-03T11:35:39.967Z,17.60
2018-11-03T11:38:09.496Z,17.40
2018-11-03T11:40:38.304Z,17.30
2018-11-03T11:43:07.224Z,17.30
2018-11-03T11:45:35.625Z,17.20
2018-11-03T11:48:04.077Z,17.20
2018-11-03T11:50:32.542Z,17.30
2018-11-03T11:53:01.018Z,17.40
2018-11-03T11:55:29.529Z,17.60
2018-11-03T11:57:57.962Z,17.80
2018-11-03T12:00:26.576Z,18.00
2018-11-03T12:02:54.947Z,18.20
2018-11-03T12:05:23.549Z,18.50
2018-11-03T12:07:52.038Z,18.60
2018-11-03T12:10:20.461Z,18.80
2018-11-03T12:12:48.878Z,19.00
2018-11-03T12:15:17.371Z,19.00
2018-11-03T12:17:45.859Z,19.00
2018-11-03T12:20:14.333Z,19.00
2018-11-03T12:22:42.756Z,19.10
2018-11-03T12:25:12.012Z,19.00
2018-11-03T12:27:40.854Z,18.80
2018-11-03T12:30:16.062Z,18.50
2018-11-03T12:32:44.539Z,18.40
2018-11-03T12:35:13.012Z,18.20
2018-11-03T12:37:41.503Z,18.10
2018-11-03T12:40:11.183Z,18.10
2018-11-03T12:42:39.658Z,18.00
2018-11-03T12:45:08.455Z,18.10
2018-11-03T12:47:37.053Z,18.10
2018-11-03T12:50:06.071Z,18.10
2018-11-03T12:52:34.563Z,18.20
2018-11-03T12:55:03.053Z,18.20
2018-11-03T12:57:31.474Z,18.30
2018-11-03T12:59:59.972Z,18.40
2018-11-03T13:02:28.421Z,18.40
2018-11-03T13:04:56.839Z,18.40
2018-11-03T13:07:25.322Z,18.50
2018-11-03T13:09:53.888Z,18.60
2018-11-03T13:12:22.322Z,18.60
2018-11-03T13:14:50.713Z,18.60
2018-11-03T13:17:19.226Z,18.70
2018-11-03T13:19:47.648Z,18.60
2018-11-03T13:22:16.118Z,18.60
2018-11-03T13:24:44.544Z,18.60
2018-11-03T13:27:13.011Z,18.70
2018-11-03T13:29:41.468Z,18.70
2018-11-03T13:32:10.118Z,18.60
2018-11-03T13:34:38.557Z,18.60
2018-11-03T13:37:07.219Z,18.60
2018-11-03T13:39:35.643Z,18.60
2018-11-03T13:42:04.354Z,18.60
2018-11-03T13:44:32.786Z,18.50
2018-11-03T13:47:01.294Z,18.50
2018-11-03T13:49:29.720Z,18.40
2018-11-03T13:51:58.193Z,18.40
2018-11-03T13:54:26.653Z,18.70
2018-11-03T13:56:55.117Z,18.90
2018-11-03T13:59:23.614Z,18.90
2018-11-03T14:01:52.099Z,18.80
2018-11-03T14:04:20.522Z,18.60
2018-11-03T14:06:48.967Z,18.60
2018-11-03T14:09:17.396Z,18.50
2018-11-03T14:11:45.872Z,18.40
2018-11-03T14:14:14.294Z,18.30
2018-11-03T14:16:42.875Z,18.30
2018-11-03T14:19:11.288Z,18.30
2018-11-03T14:21:39.783Z,18.30
2018-11-03T14:24:08.183Z,18.30
2018-11-03T14:26:36.689Z,18.40
2018-11-03T14:29:05.489Z,18.40
2018-11-03T14:31:33.909Z,18.50
2018-11-03T14:34:02.323Z,18.50
2018-11-03T14:36:30.887Z,18.40
2018-11-03T14:38:59.353Z,18.20
2018-11-03T14:41:27.771Z,18.20
2018-11-03T14:43:56.187Z,18.10
2018-11-03T14:46:24.651Z,18.00
2018-11-03T14:48:53.110Z,18.00
2018-11-03T14:51:21.501Z,18.00
2018-11-03T14:53:49.956Z,17.90
2018-11-03T14:56:18.492Z,17.90
2018-11-03T14:58:46.968Z,17.90
2018-11-03T15:01:15.358Z,17.90
2018-11-03T15:03:43.853Z,17.90
2018-11-03T15:06:12.276Z,17.90
2018-11-03T15:08:40.737Z,17.90
2018-11-03T15:11:09.137Z,17.90
2018-11-03T15:13:37.696Z,17.90
2018-11-03T15:16:06.482Z,17.90
2018-11-03T15:18:36.470Z,17.90
2018-11-03T15:21:04.870Z,17.90
2018-11-03T15:23:33.375Z,17.80
2018-11-03T15:26:01.840Z,17.80
2018-11-03T15:28:30.300Z,17.80
2018-11-03T15:30:58.772Z,17.80
2018-11-03T15:33:27.229Z,17.80
2018-11-03T15:35:55.694Z,17.80
2018-11-03T15:38:24.166Z,17.80
2018-11-03T15:40:52.636Z,17.80
2018-11-03T15:43:21.094Z,17.80
2018-11-03T15:45:49.598Z,17.80
2018-11-03T15:48:18.033Z,17.90
2018-11-03T15:50:50.996Z,17.90
2018-11-03T15:53:19.921Z,18.00
2018-11-03T15:55:48.366Z,18.30
2018-11-03T15:58:16.915Z,18.40
2018-11-03T16:00:45.338Z,18.40
2018-11-03T16:03:13.815Z,18.20
2018-11-03T16:05:42.237Z,18.10
2018-11-03T16:08:10.691Z,18.00
2018-11-03T16:10:39.140Z,18.00
2018-11-03T16:13:07.592Z,18.10
2018-11-03T16:15:36.012Z,18.00
2018-11-03T16:18:04.457Z,18.00
2018-11-03T16:20:32.967Z,18.10
2018-11-03T16:23:01.436Z,18.20
2018-11-03T16:25:29.892Z,18.20
2018-11-03T16:27:58.284Z,18.30
2018-11-03T16:30:26.733Z,18.40
2018-11-03T16:32:55.234Z,18.40
2018-11-03T16:35:23.701Z,18.50
2018-11-03T16:37:52.120Z,18.60
2018-11-03T16:40:20.591Z,18.80
2018-11-03T16:42:49.078Z,18.90
2018-11-03T16:45:17.932Z,19.10
2018-11-03T16:47:46.476Z,19.20
2018-11-03T16:50:16.060Z,19.30
2018-11-03T16:52:44.534Z,19.30
2018-11-03T16:55:13.922Z,19.40
2018-11-03T16:57:42.351Z,19.50
2018-11-03T17:00:12.712Z,19.70
2018-11-03T17:02:41.687Z,19.90
2018-11-03T17:05:11.438Z,20.00
2018-11-03T17:07:39.820Z,20.20
2018-11-03T17:10:09.880Z,20.30
2018-11-03T17:12:38.551Z,20.20
2018-11-03T17:15:06.958Z,20.10
2018-11-03T17:17:35.384Z,20.20
2018-11-03T17:20:03.857Z,20.20
2018-11-03T17:22:32.292Z,20.20
2018-11-03T17:25:00.780Z,20.30
2018-11-03T17:27:29.215Z,20.30
2018-11-03T17:29:57.702Z,20.40
2018-11-03T17:32:26.123Z,20.40
2018-11-03T17:34:54.580Z,20.30
2018-11-03T17:37:23.004Z,20.30
2018-11-03T17:39:51.550Z,20.30
2018-11-03T17:42:19.965Z,20.30
2018-11-03T17:44:48.564Z,20.40
2018-11-03T17:47:16.984Z,20.60
2018-11-03T17:49:45.449Z,20.80
2018-11-03T17:52:13.866Z,20.90
2018-11-03T17:54:42.414Z,21.10
2018-11-03T17:57:10.818Z,20.50
2018-11-03T17:59:39.248Z,20.00
2018-11-03T18:02:07.720Z,19.80
2018-11-03T18:04:36.219Z,19.80
2018-11-03T18:07:04.603Z,19.70
2018-11-03T18:09:33.091Z,19.60
2018-11-03T18:12:01.514Z,19.50
2018-11-03T18:14:30.112Z,19.30
2018-11-03T18:16:58.631Z,19.00
2018-11-03T18:19:27.049Z,18.80
2018-11-03T18:21:55.480Z,19.10
2018-11-03T18:24:23.941Z,19.20
2018-11-03T18:26:52.391Z,19.30
2018-11-03T18:29:20.869Z,19.20
2018-11-03T18:31:49.313Z,19.30
2018-11-03T18:34:17.834Z,19.50
2018-11-03T18:36:46.273Z,19.50
2018-11-03T18:39:14.720Z,19.50
2018-11-03T18:41:43.217Z,19.40
2018-11-03T18:44:11.551Z,19.50
2018-11-03T18:46:40.096Z,19.50
2018-11-03T18:49:08.442Z,19.50
2018-11-03T18:51:36.923Z,19.60
2018-11-03T18:54:05.532Z,19.50
2018-11-03T18:56:34.032Z,19.50
2018-11-03T18:59:02.462Z,19.50
2018-11-03T19:01:30.951Z,19.50
2018-11-03T19:03:59.373Z,19.50
2018-11-03T19:06:27.868Z,19.40
2018-11-03T19:08:56.293Z,19.20
2018-11-03T19:11:24.762Z,19.10
2018-11-03T19:13:53.181Z,18.90
2018-11-03T19:16:21.681Z,18.80
2018-11-03T19:18:50.091Z,18.90
2018-11-03T19:21:18.608Z,19.20
2018-11-03T19:23:47.097Z,19.50
2018-11-03T19:26:15.493Z,19.80
2018-11-03T19:28:43.940Z,20.00
2018-11-03T19:31:12.427Z,20.10
2018-11-03T19:33:40.843Z,20.30
2018-11-03T19:36:09.356Z,20.50
2018-11-03T19:38:37.801Z,20.70
2018-11-03T19:41:06.280Z,20.90
2018-11-03T19:43:34.740Z,21.10
2018-11-03T19:46:03.249Z,21.20
2018-11-03T19:48:31.660Z,21.40
2018-11-03T19:51:00.126Z,20.80
2018-11-03T19:53:28.512Z,20.60
2018-11-03T19:55:56.967Z,20.60
2018-11-03T19:58:25.398Z,20.50
2018-11-03T20:00:53.849Z,20.40
2018-11-03T20:03:22.322Z,20.40
2018-11-03T20:05:50.780Z,20.40
2018-11-03T20:08:19.212Z,20.40
2018-11-03T20:10:47.693Z,20.60
2018-11-03T20:13:16.115Z,20.80
2018-11-03T20:15:44.593Z,21.00
2018-11-03T20:18:13.027Z,21.20
2018-11-03T20:20:41.455Z,22.10
2018-11-03T20:23:09.912Z,23.10
2018-11-03T20:25:38.341Z,23.40
2018-11-03T20:28:06.942Z,23.40
2018-11-03T20:30:35.339Z,23.30
2018-11-03T20:33:03.829Z,23.30
2018-11-03T20:35:32.252Z,23.30
2018-11-03T20:38:00.772Z,23.40
2018-11-03T20:40:29.185Z,23.40
2018-11-03T20:42:57.753Z,23.30
2018-11-03T20:45:26.164Z,23.40
2018-11-03T20:47:54.679Z,23.30
2018-11-03T20:50:23.096Z,23.20
2018-11-03T20:52:51.547Z,22.90
2018-11-03T20:55:19.961Z,22.40
2018-11-03T20:57:48.412Z,21.80
2018-11-03T21:00:17.225Z,21.10
2018-11-03T21:02:46.568Z,20.60
2018-11-03T21:05:15.067Z,20.30
2018-11-03T21:07:44.273Z,20.10
2018-11-03T21:10:12.691Z,20.00
2018-11-03T21:12:41.163Z,19.90
2018-11-03T21:15:09.601Z,19.90
2018-11-03T21:17:38.079Z,19.90
2018-11-03T21:20:06.775Z,19.80
2018-11-03T21:22:35.292Z,19.80
2018-11-03T21:25:03.732Z,19.80
2018-11-03T21:27:32.190Z,20.00
2018-11-03T21:30:00.691Z,20.30
2018-11-03T21:32:29.174Z,20.60
2018-11-03T21:34:57.633Z,20.90
2018-11-03T21:37:26.139Z,21.00
2018-11-03T21:39:54.571Z,21.00
2018-11-03T21:42:23.028Z,20.90
2018-11-03T21:44:51.457Z,20.70
2018-11-03T21:47:19.918Z,20.10
2018-11-03T21:49:48.388Z,19.60
2018-11-03T21:52:16.915Z,19.30
2018-11-03T21:54:45.300Z,19.10
2018-11-03T21:57:13.858Z,18.80
2018-11-03T21:59:42.303Z,18.60
2018-11-03T22:02:10.765Z,18.50
2018-11-03T22:04:39.238Z,18.40
2018-11-03T22:07:07.690Z,18.50
2018-11-03T22:09:36.116Z,18.50
2018-11-03T22:12:04.586Z,18.60
2018-11-03T22:14:33.039Z,18.70
2018-11-03T22:17:01.481Z,18.70
2018-11-03T22:19:30.044Z,18.70
2018-11-03T22:21:58.827Z,19.10
2018-11-03T22:24:27.293Z,19.80
2018-11-03T22:26:55.737Z,20.10
2018-11-03T22:29:24.237Z,20.20
2018-11-03T22:31:52.677Z,20.40
2018-11-03T22:34:21.175Z,20.60
2018-11-03T22:36:49.604Z,20.70
2018-11-03T22:39:18.030Z,20.70
2018-11-03T22:41:46.461Z,20.80
2018-11-03T22:44:14.924Z,20.70
2018-11-03T22:46:43.380Z,20.70
2018-11-03T22:49:11.878Z,20.80
2018-11-03T22:51:40.314Z,20.80
2018-11-03T22:54:08.743Z,20.60
2018-11-03T22:56:37.162Z,20.50
2018-11-03T22:59:05.680Z,20.50
2018-11-03T23:01:34.106Z,20.50
2018-11-03T23:04:02.566Z,20.70
2018-11-03T23:06:31.079Z,20.70
2018-11-03T23:08:59.495Z,20.50
2018-11-03T23:11:27.962Z,20.30
2018-11-03T23:13:56.487Z,20.10
2018-11-03T23:16:24.916Z,19.80
2018-11-03T23:18:53.393Z,19.50
2018-11-03T23:21:21.834Z,19.20
2018-11-03T23:23:50.296Z,19.10
2018-11-03T23:26:18.726Z,19.10
2018-11-03T23:28:47.216Z,19.10
2018-11-03T23:31:15.628Z,19.20
2018-11-03T23:33:44.072Z,19.30
2018-11-03T23:36:12.492Z,19.30
2018-11-03T23:38:40.949Z,19.50
2018-11-03T23:41:09.384Z,19.50
2018-11-03T23:43:37.842Z,19.60
2018-11-03T23:46:06.383Z,19.70
2018-11-03T23:48:34.838Z,19.80
2018-11-03T23:51:03.226Z,19.50
2018-11-03T23:53:31.688Z,19.50
2018-11-03T23:56:01.333Z,19.40
2018-11-03T23:58:28.600Z,19.30
